createdAt,value
2023-02-09T00:04:04.263Z,23.77
2023-02-09T00:09:06.965Z,24.93
2023-02-09T00:14:09.788Z,22.80
2023-02-09T00:19:14.362Z,24.10
2023-02-09T00:24:17.528Z,22.80
2023-02-09T00:29:22.383Z,23.20
2023-02-09T00:34:27.151Z,27.70
2023-02-09T00:39:31.642Z,24.37
2023-02-09T00:44:35.295Z,20.70
2023-02-09T00:49:40.392Z,21.50
2023-02-09T00:54:43.303Z,21.93
2023-02-09T00:59:46.033Z,21.83
2023-02-09T01:04:50.368Z,18.73
2023-02-09T01:09:53.124Z,28.70
2023-02-09T01:14:55.916Z,26.80
2023-02-09T01:20:00.179Z,26.50
2023-02-09T01:25:02.957Z,23.97
2023-02-09T01:30:06.398Z,21.80
2023-02-09T01:35:11.457Z,19.63
2023-02-09T01:40:14.174Z,22.37
2023-02-09T01:45:30.814Z,22.17
2023-02-09T01:50:38.508Z,19.77
2023-02-09T01:55:45.709Z,19.67
2023-02-09T02:00:48.807Z,20.23
2023-02-09T02:05:57.159Z,21.97
2023-02-09T02:10:59.981Z,20.93
2023-02-09T02:16:06.440Z,20.57
2023-02-09T02:21:45.279Z,18.07
2023-02-09T02:26:58.059Z,20.97
2023-02-09T02:32:24.557Z,25.17
2023-02-09T02:37:46.348Z,19.93
2023-02-09T02:42:53.129Z,20.57
2023-02-09T02:48:03.077Z,18.30
2023-02-09T02:53:07.305Z,19.37
2023-02-09T02:58:12.501Z,18.27
2023-02-09T03:03:19.716Z,18.10
2023-02-09T03:08:22.416Z,21.90
2023-02-09T03:13:39.316Z,22.20
2023-02-09T03:18:52.782Z,18.63
2023-02-09T03:24:00.203Z,22.40
2023-02-09T03:29:03.490Z,19.87
2023-02-09T03:34:08.005Z,19.13
2023-02-09T03:39:10.913Z,16.63
2023-02-09T03:44:29.540Z,22.20
2023-02-09T03:49:35.994Z,22.33
2023-02-09T03:54:39.055Z,18.07
2023-02-09T03:59:42.013Z,15.93
2023-02-09T04:04:46.319Z,17.27
2023-02-09T04:09:49.258Z,17.13
2023-02-09T04:14:52.033Z,16.70
2023-02-09T04:19:56.139Z,18.33
2023-02-09T04:24:58.847Z,21.00
2023-02-09T04:30:01.536Z,17.10
2023-02-09T04:35:06.069Z,16.17
2023-02-09T04:40:10.046Z,17.23
2023-02-09T04:45:12.866Z,15.47
2023-02-09T04:50:17.407Z,16.33
2023-02-09T04:55:20.313Z,18.13
2023-02-09T05:00:23.162Z,17.20
2023-02-09T05:05:27.307Z,17.77
2023-02-09T05:10:30.036Z,15.70
2023-02-09T05:15:32.847Z,18.00
2023-02-09T05:20:37.419Z,17.77
2023-02-09T05:25:40.411Z,15.80
2023-02-09T05:30:43.700Z,18.97
2023-02-09T05:35:47.968Z,14.27
2023-02-09T05:40:51.218Z,15.50
2023-02-09T05:45:54.113Z,18.53
2023-02-09T05:50:58.138Z,13.70
2023-02-09T05:56:00.917Z,15.03
2023-02-09T06:01:05.346Z,15.27
2023-02-09T06:06:09.643Z,17.73
2023-02-09T06:11:12.465Z,21.73
2023-02-09T06:16:15.181Z,15.90
2023-02-09T06:21:19.283Z,15.17
2023-02-09T06:26:22.135Z,13.90
2023-02-09T06:31:25.023Z,11.90
2023-02-09T06:36:29.186Z,13.70
2023-02-09T06:41:31.903Z,15.17
2023-02-09T06:46:34.724Z,13.50
2023-02-09T06:51:38.850Z,12.23
2023-02-09T06:56:41.718Z,11.20
2023-02-09T07:01:44.482Z,13.17
2023-02-09T07:06:48.605Z,16.30
2023-02-09T07:11:51.328Z,14.60
2023-02-09T07:16:54.172Z,13.53
2023-02-09T07:21:58.227Z,12.23
2023-02-09T07:27:00.891Z,17.87
2023-02-09T07:32:03.621Z,15.73
2023-02-09T07:37:07.928Z,13.47
2023-02-09T07:42:10.741Z,12.83
2023-02-09T07:47:32.100Z,12.33
2023-02-09T07:52:36.222Z,9.80
2023-02-09T07:57:38.933Z,13.27
2023-02-09T08:02:41.627Z,12.73
2023-02-09T08:07:46.560Z,12.47
2023-02-09T08:13:02.300Z,11.90
2023-02-09T08:18:10.200Z,13.97
2023-02-09T08:23:19.629Z,13.77
2023-02-09T08:28:38.252Z,12.93
2023-02-09T08:33:46.666Z,12.00
2023-02-09T08:38:50.786Z,12.33
2023-02-09T08:43:53.602Z,15.23
2023-02-09T08:48:56.292Z,13.93
2023-02-09T08:54:00.377Z,13.80
2023-02-09T08:59:03.070Z,11.17
2023-02-09T09:04:05.916Z,12.80
2023-02-09T09:09:10.096Z,14.53
2023-02-09T09:14:12.934Z,12.80
2023-02-09T09:19:15.640Z,15.10
2023-02-09T09:24:19.909Z,16.07
2023-02-09T09:29:22.712Z,14.37
2023-02-09T09:34:25.632Z,14.10
2023-02-09T09:39:29.821Z,12.90
2023-02-09T09:44:34.918Z,12.60
2023-02-09T09:49:38.204Z,12.47
2023-02-09T09:54:42.899Z,11.07
2023-02-09T09:59:45.706Z,10.87
2023-02-09T10:04:49.088Z,11.20
2023-02-09T10:09:56.840Z,13.17
2023-02-09T10:14:59.962Z,11.57
2023-02-09T10:20:05.510Z,12.20
2023-02-09T10:25:38.259Z,10.17
2023-02-09T10:30:41.409Z,12.47
2023-02-09T10:35:46.287Z,10.47
2023-02-09T10:40:51.286Z,10.67
2023-02-09T10:45:55.806Z,11.90
2023-02-09T10:50:59.929Z,14.50
2023-02-09T10:56:07.917Z,9.37
2023-02-09T11:01:18.404Z,12.53
2023-02-09T11:06:21.221Z,10.53
2023-02-09T11:11:30.483Z,9.10
2023-02-09T11:16:57.535Z,12.00
2023-02-09T11:22:04.137Z,11.13
2023-02-09T11:27:23.618Z,10.27
2023-02-09T11:32:28.265Z,11.47
2023-02-09T11:37:36.892Z,12.67
2023-02-09T11:42:47.720Z,8.20
2023-02-09T11:47:57.824Z,10.43
2023-02-09T11:53:03.255Z,8.93
2023-02-09T11:58:37.252Z,9.53
2023-02-09T12:03:40.637Z,9.40
2023-02-09T12:08:51.210Z,8.38
2023-02-09T12:14:05.424Z,9.75
2023-02-09T12:19:24.761Z,10.70
2023-02-09T12:24:35.252Z,11.13
2023-02-09T12:29:40.602Z,8.05
2023-02-09T12:34:44.853Z,8.88
2023-02-09T12:40:18.394Z,7.18
2023-02-09T12:45:34.557Z,8.35
2023-02-09T12:50:47.621Z,7.57
2023-02-09T12:55:59.629Z,9.65
2023-02-09T13:01:03.858Z,7.95
2023-02-09T13:06:07.633Z,7.18
2023-02-09T13:11:21.633Z,7.65
2023-02-09T13:16:53.989Z,7.63
2023-02-09T13:22:03.391Z,8.20
2023-02-09T13:27:18.593Z,7.93
2023-02-09T13:32:31.974Z,8.95
2023-02-09T13:37:41.592Z,7.40
2023-02-09T13:42:54.136Z,7.78
2023-02-09T13:47:59.117Z,7.75
2023-02-09T13:53:09.338Z,9.35
2023-02-09T13:58:16.003Z,8.75
2023-02-09T14:03:21.829Z,7.55
2023-02-09T14:08:25.662Z,6.97
2023-02-09T14:13:30.689Z,8.43
2023-02-09T14:18:44.521Z,8.65
2023-02-09T14:23:48.633Z,9.68
2023-02-09T14:28:54.033Z,8.17
2023-02-09T14:33:58.215Z,8.10
2023-02-09T14:39:16.975Z,8.33
2023-02-09T14:44:21.557Z,7.07
2023-02-09T14:49:28.816Z,5.77
2023-02-09T14:54:33.860Z,7.93
2023-02-09T14:59:36.565Z,7.00
2023-02-09T15:04:41.884Z,9.27
2023-02-09T15:09:44.716Z,6.23
2023-02-09T15:14:48.416Z,9.47
2023-02-09T15:19:53.322Z,7.40
2023-02-09T15:24:56.090Z,11.40
2023-02-09T15:30:01.116Z,5.80
2023-02-09T15:35:06.948Z,7.53
2023-02-09T15:40:41.551Z,6.17
2023-02-09T15:46:01.780Z,6.27
2023-02-09T15:51:06.460Z,5.03
2023-02-09T15:56:10.139Z,6.80
2023-02-09T16:01:16.607Z,6.63
2023-02-09T16:06:24.690Z,8.43
2023-02-09T16:11:29.191Z,8.20
2023-02-09T16:16:33.067Z,8.27
2023-02-09T16:21:37.274Z,7.07
2023-02-09T16:26:39.999Z,8.77
2023-02-09T16:31:42.892Z,7.37
2023-02-09T16:36:48.563Z,8.73
2023-02-09T16:41:51.590Z,8.13
2023-02-09T16:46:55.909Z,10.47
2023-02-09T16:52:20.814Z,8.63
2023-02-09T16:57:25.388Z,7.50
2023-02-09T17:02:34.903Z,6.57
2023-02-09T17:07:52.453Z,11.43
2023-02-09T17:12:56.600Z,10.67
2023-02-09T17:18:02.518Z,9.20
2023-02-09T17:23:07.096Z,7.87
2023-02-09T17:28:09.882Z,9.17
2023-02-09T17:33:19.367Z,8.70
2023-02-09T17:38:26.592Z,7.00
2023-02-09T17:43:29.459Z,8.47
2023-02-09T17:48:32.269Z,7.87
2023-02-09T17:53:37.985Z,10.47
2023-02-09T17:58:44.116Z,8.33
2023-02-09T18:03:46.900Z,6.90
2023-02-09T18:08:51.216Z,10.73
2023-02-09T18:13:55.460Z,8.37
2023-02-09T18:18:58.399Z,7.43
2023-02-09T18:24:02.549Z,7.23
2023-02-09T18:29:05.340Z,8.83
2023-02-09T18:34:08.437Z,9.50
2023-02-09T18:39:12.524Z,8.37
2023-02-09T18:44:15.432Z,8.30
2023-02-09T18:49:18.343Z,9.00
2023-02-09T18:54:22.474Z,7.80
2023-02-09T18:59:29.028Z,9.17
2023-02-09T19:04:32.075Z,9.97
2023-02-09T19:09:36.317Z,10.27
2023-02-09T19:14:40.611Z,13.23
2023-02-09T19:19:44.544Z,8.37
2023-02-09T19:24:52.989Z,10.13
2023-02-09T19:29:57.174Z,10.53
2023-02-09T19:34:59.873Z,10.03
2023-02-09T19:40:10.615Z,11.23
2023-02-09T19:45:13.544Z,8.90
2023-02-09T19:50:16.782Z,7.87
2023-02-09T19:55:21.046Z,10.23
2023-02-09T20:00:23.799Z,11.43
2023-02-09T20:05:27.562Z,9.83
2023-02-09T20:10:31.679Z,12.53
2023-02-09T20:15:34.666Z,11.03
2023-02-09T20:20:41.137Z,11.23
2023-02-09T20:25:45.519Z,10.33
2023-02-09T20:30:48.717Z,12.10
2023-02-09T20:35:51.680Z,11.90
2023-02-09T20:40:55.719Z,13.93
2023-02-09T20:46:16.105Z,15.13
2023-02-09T20:51:19.780Z,10.20
2023-02-09T20:56:24.536Z,10.97
2023-02-09T21:01:27.545Z,14.53
2023-02-09T21:06:30.366Z,10.80
2023-02-09T21:11:34.551Z,12.30
2023-02-09T21:16:38.339Z,11.17
2023-02-09T21:21:41.156Z,10.27
2023-02-09T21:26:45.266Z,10.53
2023-02-09T21:31:48.252Z,11.17
2023-02-09T21:36:51.044Z,10.80
2023-02-09T21:42:17.760Z,10.67
2023-02-09T21:47:20.649Z,10.20
2023-02-09T21:52:23.437Z,9.90
2023-02-09T21:57:27.995Z,8.97
2023-02-09T22:02:30.780Z,11.80
2023-02-09T22:07:34.735Z,11.37
2023-02-09T22:12:39.860Z,11.77
2023-02-09T22:17:42.563Z,8.63
2023-02-09T22:22:46.049Z,12.57
2023-02-09T22:27:50.127Z,14.43
2023-02-09T22:32:53.292Z,12.27
2023-02-09T22:37:56.015Z,11.43
2023-02-09T22:43:00.384Z,11.87
2023-02-09T22:48:03.091Z,11.97
2023-02-09T22:53:05.810Z,14.07
2023-02-09T22:58:09.881Z,10.67
2023-02-09T23:03:12.592Z,9.43
2023-02-09T23:08:15.280Z,10.23
2023-02-09T23:13:19.461Z,9.63
2023-02-09T23:18:22.194Z,9.73
2023-02-09T23:23:24.982Z,8.47
2023-02-09T23:28:29.255Z,8.23
2023-02-09T23:33:32.036Z,12.73
2023-02-09T23:38:34.763Z,9.40
2023-02-09T23:43:38.864Z,14.10
2023-02-09T23:48:41.868Z,9.37
2023-02-09T23:53:44.613Z,10.47
2023-02-09T23:58:51.272Z,9.50
